createdAt,value
2018-03-16T00:00:56.904Z,27.87
2018-03-16T00:01:56.902Z,27.74
2018-03-16T00:02:56.903Z,27.72
2018-03-16T00:03:56.905Z,27.76
2018-03-16T00:04:56.897Z,27.80
2018-03-16T00:05:56.900Z,27.63
2018-03-16T00:06:56.894Z,27.65
2018-03-16T00:07:56.892Z,27.66
2018-03-16T00:08:56.889Z,27.66
2018-03-16T00:09:56.888Z,27.65
2018-03-16T00:10:56.887Z,27.65
2018-03-16T00:11:56.889Z,27.62
2018-03-16T00:12:56.886Z,27.61
2018-03-16T00:13:56.880Z,27.61
2018-03-16T00:14:56.882Z,27.61
2018-03-16T00:15:56.877Z,27.62
2018-03-16T00:16:56.874Z,27.59
2018-03-16T00:17:56.878Z,27.58
2018-03-16T00:18:56.874Z,27.49
2018-03-16T00:19:56.873Z,27.58
2018-03-16T00:20:56.866Z,27.53
2018-03-16T00:21:56.865Z,27.59
2018-03-16T00:22:56.863Z,27.53
2018-03-16T00:23:56.861Z,27.53
2018-03-16T00:24:56.858Z,27.49
2018-03-16T00:25:56.860Z,27.50
2018-03-16T00:26:56.907Z,27.46
2018-03-16T00:27:56.905Z,27.45
2018-03-16T00:28:56.854Z,27.48
2018-03-16T00:29:56.848Z,27.50
2018-03-16T00:30:56.848Z,27.39
2018-03-16T00:31:56.842Z,27.38
2018-03-16T00:32:56.839Z,27.31
2018-03-16T00:33:56.839Z,27.34
2018-03-16T00:34:56.840Z,27.28
2018-03-16T00:35:56.839Z,27.30
2018-03-16T00:36:56.833Z,27.31
2018-03-16T00:37:56.830Z,27.30
2018-03-16T00:38:56.833Z,27.42
2018-03-16T00:39:56.828Z,27.40
2018-03-16T00:40:56.822Z,27.31
2018-03-16T00:41:56.824Z,27.28
2018-03-16T00:42:56.822Z,27.33
2018-03-16T00:43:56.820Z,27.31
2018-03-16T00:44:56.852Z,27.28
2018-03-16T00:45:56.814Z,27.33
2018-03-16T00:46:56.811Z,27.28
2018-03-16T00:47:56.812Z,27.21
2018-03-16T00:48:56.811Z,27.27
2018-03-16T00:49:56.807Z,27.24
2018-03-16T00:50:56.805Z,27.25
2018-03-16T00:51:56.810Z,27.28
2018-03-16T00:52:56.799Z,27.31
2018-03-16T00:53:56.798Z,27.27
2018-03-16T00:54:56.800Z,27.31
2018-03-16T00:55:56.789Z,27.27
2018-03-16T00:56:56.791Z,27.20
2018-03-16T00:57:56.786Z,27.20
2018-03-16T00:58:56.784Z,27.23
2018-03-16T00:59:56.784Z,27.21
2018-03-16T01:00:56.782Z,27.12
2018-03-16T01:01:56.781Z,27.15
2018-03-16T01:02:56.773Z,27.09
2018-03-16T01:03:56.760Z,27.09
2018-03-16T01:04:56.757Z,27.11
2018-03-16T01:05:56.755Z,27.08
2018-03-16T01:06:56.771Z,27.05
2018-03-16T01:07:56.749Z,27.09
2018-03-16T01:08:56.743Z,26.98
2018-03-16T01:09:56.759Z,27.08
2018-03-16T01:10:56.762Z,26.97
2018-03-16T01:11:56.740Z,27.02
2018-03-16T01:12:56.738Z,27.08
2018-03-16T01:13:56.759Z,27.06
2018-03-16T01:14:56.748Z,26.96
2018-03-16T01:15:56.745Z,26.94
2018-03-16T01:16:56.847Z,27.08
2018-03-16T01:17:56.727Z,27.02
2018-03-16T01:18:56.725Z,26.86
2018-03-16T01:19:56.717Z,26.91
2018-03-16T01:20:56.737Z,26.81
2018-03-16T01:21:56.735Z,26.90
2018-03-16T01:22:56.715Z,26.91
2018-03-16T01:23:56.713Z,26.93
2018-03-16T01:24:56.726Z,26.79
2018-03-16T01:25:56.725Z,26.87
2018-03-16T01:26:56.717Z,26.88
2018-03-16T01:27:56.702Z,26.84
2018-03-16T01:28:56.717Z,26.86
2018-03-16T01:29:56.692Z,26.83
2018-03-16T01:30:56.693Z,26.84
2018-03-16T01:31:56.693Z,26.73
2018-03-16T01:32:56.684Z,26.73
2018-03-16T01:33:56.686Z,26.68
2018-03-16T01:34:56.713Z,26.73
2018-03-16T01:35:56.699Z,26.76
2018-03-16T01:36:56.693Z,26.72
2018-03-16T01:37:56.695Z,26.73
2018-03-16T01:38:56.691Z,26.76
2018-03-16T01:39:56.687Z,26.79
2018-03-16T01:40:56.686Z,26.78
2018-03-16T01:41:56.682Z,26.66
2018-03-16T01:42:56.678Z,26.72
2018-03-16T01:43:56.679Z,26.72
2018-03-16T01:44:56.669Z,26.66
2018-03-16T01:45:56.671Z,26.68
2018-03-16T01:46:56.668Z,26.66
2018-03-16T01:47:56.666Z,26.68
2018-03-16T01:48:56.664Z,26.64
2018-03-16T01:49:56.660Z,26.64
2018-03-16T01:50:56.639Z,26.68
2018-03-16T01:51:56.656Z,26.65
2018-03-16T01:52:56.636Z,26.73
2018-03-16T01:53:56.649Z,26.65
2018-03-16T01:54:56.632Z,26.66
2018-03-16T01:55:56.645Z,26.64
2018-03-16T01:56:56.625Z,26.69
2018-03-16T01:57:56.639Z,26.69
2018-03-16T01:58:56.633Z,26.64
2018-03-16T01:59:56.630Z,26.60
2018-03-16T02:00:56.614Z,26.71
2018-03-16T02:01:56.614Z,26.65
2018-03-16T02:02:56.611Z,26.66
2018-03-16T02:03:56.608Z,26.68
2018-03-16T02:04:56.604Z,26.54
2018-03-16T02:05:56.599Z,26.68
2018-03-16T02:06:56.601Z,26.65
2018-03-16T02:07:56.609Z,26.66
2018-03-16T02:08:56.595Z,26.69
2018-03-16T02:09:56.608Z,26.66
2018-03-16T02:10:56.606Z,26.68
2018-03-16T02:11:56.588Z,26.68
2018-03-16T02:12:56.600Z,26.64
2018-03-16T02:13:56.597Z,26.64
2018-03-16T02:14:56.580Z,26.65
2018-03-16T02:15:56.593Z,26.71
2018-03-16T02:16:56.575Z,26.68
2018-03-16T02:17:56.575Z,26.75
2018-03-16T02:18:56.585Z,26.64
2018-03-16T02:19:56.567Z,26.68
2018-03-16T02:20:56.582Z,26.59
2018-03-16T02:21:56.558Z,26.66
2018-03-16T02:22:56.574Z,26.66
2018-03-16T02:23:56.557Z,26.61
2018-03-16T02:24:56.558Z,26.66
2018-03-16T02:25:56.562Z,26.65
2018-03-16T02:26:56.561Z,26.66
2018-03-16T02:27:56.562Z,26.64
2018-03-16T02:28:56.554Z,26.60
2018-03-16T02:29:56.537Z,26.57
2018-03-16T02:30:56.550Z,26.53
2018-03-16T02:31:56.534Z,26.54
2018-03-16T02:32:56.535Z,26.51
2018-03-16T02:33:56.527Z,26.47
2018-03-16T02:34:56.539Z,26.46
2018-03-16T02:35:56.526Z,26.39
2018-03-16T02:36:56.533Z,26.47
2018-03-16T02:37:56.531Z,26.38
2018-03-16T02:38:56.517Z,26.36
2018-03-16T02:39:56.529Z,26.32
2018-03-16T02:40:56.621Z,26.27
2018-03-16T02:41:56.508Z,26.27
2018-03-16T02:42:56.505Z,26.27
2018-03-16T02:43:56.503Z,26.29
2018-03-16T02:44:56.498Z,26.23
2018-03-16T02:45:56.492Z,26.28
2018-03-16T02:46:56.490Z,26.27
2018-03-16T02:47:56.491Z,26.27
2018-03-16T02:48:56.483Z,26.21
2018-03-16T02:49:56.480Z,26.21
2018-03-16T02:50:56.477Z,26.17
2018-03-16T02:51:56.475Z,26.20
2018-03-16T02:52:56.575Z,26.16
2018-03-16T02:53:56.471Z,26.11
2018-03-16T02:54:56.465Z,26.11
2018-03-16T02:55:56.463Z,26.09
2018-03-16T02:56:56.459Z,26.13
2018-03-16T02:57:56.455Z,26.08
2018-03-16T02:58:56.453Z,26.09
2018-03-16T02:59:56.458Z,26.13
2018-03-16T03:00:56.445Z,26.03
2018-03-16T03:01:56.447Z,26.01
2018-03-16T03:02:56.440Z,26.12
2018-03-16T03:03:56.439Z,26.16
2018-03-16T03:04:56.436Z,26.08
2018-03-16T03:05:56.430Z,26.17
2018-03-16T03:06:56.430Z,26.13
2018-03-16T03:07:56.424Z,26.12
2018-03-16T03:08:56.423Z,26.17
2018-03-16T03:09:56.421Z,26.03
2018-03-16T03:10:56.418Z,26.04
2018-03-16T03:11:56.411Z,26.06
2018-03-16T03:12:56.412Z,26.09
2018-03-16T03:13:56.409Z,26.11
2018-03-16T03:14:56.406Z,26.09
2018-03-16T03:15:56.401Z,26.12
2018-03-16T03:16:56.498Z,26.12
2018-03-16T03:17:56.396Z,26.09
2018-03-16T03:18:56.392Z,26.03
2018-03-16T03:19:56.388Z,26.04
2018-03-16T03:20:56.385Z,26.09
2018-03-16T03:21:56.383Z,26.04
2018-03-16T03:22:56.485Z,26.09
2018-03-16T03:23:56.373Z,26.00
2018-03-16T03:24:56.373Z,26.01
2018-03-16T03:25:56.369Z,26.03
2018-03-16T03:26:56.363Z,25.97
2018-03-16T03:27:56.403Z,26.00
2018-03-16T03:28:56.380Z,26.03
2018-03-16T03:29:56.377Z,25.98
2018-03-16T03:30:56.357Z,25.89
2018-03-16T03:31:56.353Z,25.89
2018-03-16T03:32:56.346Z,25.90
2018-03-16T03:33:56.363Z,25.91
2018-03-16T03:34:56.354Z,25.93
2018-03-16T03:35:56.340Z,25.89
2018-03-16T03:36:56.334Z,25.94
2018-03-16T03:37:56.329Z,25.89
2018-03-16T03:38:56.328Z,25.89
2018-03-16T03:39:56.324Z,25.90
2018-03-16T03:40:56.335Z,25.96
2018-03-16T03:41:56.318Z,25.89
2018-03-16T03:42:56.334Z,25.90
2018-03-16T03:43:56.330Z,25.75
2018-03-16T03:44:56.305Z,25.76
2018-03-16T03:45:56.323Z,25.71
2018-03-16T03:46:56.320Z,25.76
2018-03-16T03:47:56.299Z,25.66
2018-03-16T03:48:56.313Z,25.71
2018-03-16T03:49:56.310Z,25.67
2018-03-16T03:50:56.307Z,25.63
2018-03-16T03:51:56.302Z,25.64
2018-03-16T03:52:56.296Z,25.67
2018-03-16T03:53:56.301Z,25.61
2018-03-16T03:54:56.293Z,25.63
2018-03-16T03:55:56.290Z,25.56
2018-03-16T03:56:56.279Z,25.54
2018-03-16T03:57:56.281Z,25.48
2018-03-16T03:58:56.278Z,25.54
2018-03-16T03:59:56.275Z,25.42
2018-03-16T04:00:56.266Z,25.44
2018-03-16T04:01:56.269Z,25.45
2018-03-16T04:02:56.263Z,25.44
2018-03-16T04:03:56.256Z,25.44
2018-03-16T04:04:56.254Z,25.42
2018-03-16T04:05:56.259Z,25.44
2018-03-16T04:06:56.251Z,25.45
2018-03-16T04:07:56.246Z,25.42
2018-03-16T04:08:56.243Z,25.49
2018-03-16T04:09:56.235Z,25.48
2018-03-16T04:10:56.332Z,25.51
2018-03-16T04:11:56.230Z,25.51
2018-03-16T04:12:56.222Z,25.49
2018-03-16T04:13:56.226Z,25.54
2018-03-16T04:14:56.220Z,25.45
2018-03-16T04:15:56.217Z,25.53
2018-03-16T04:16:56.315Z,25.44
2018-03-16T04:17:56.205Z,25.56
2018-03-16T04:18:56.208Z,25.45
2018-03-16T04:19:56.199Z,25.56
2018-03-16T04:20:56.198Z,25.56
2018-03-16T04:21:56.197Z,25.51
2018-03-16T04:22:56.194Z,25.48
2018-03-16T04:23:56.191Z,25.46
2018-03-16T04:24:56.183Z,25.48
2018-03-16T04:25:56.201Z,25.44
2018-03-16T04:26:56.180Z,25.45
2018-03-16T04:27:56.178Z,25.41
2018-03-16T04:28:56.172Z,25.38
2018-03-16T04:29:56.165Z,25.39
2018-03-16T04:30:56.161Z,25.42
2018-03-16T04:31:56.159Z,25.45
2018-03-16T04:32:56.159Z,25.38
2018-03-16T04:33:56.165Z,25.48
2018-03-16T04:34:56.151Z,25.46
2018-03-16T04:35:56.144Z,25.34
2018-03-16T04:36:56.140Z,25.41
2018-03-16T04:37:56.138Z,25.39
2018-03-16T04:38:56.137Z,25.41
2018-03-16T04:39:56.134Z,25.39
2018-03-16T04:40:56.230Z,25.38
2018-03-16T04:41:56.126Z,25.39
2018-03-16T04:42:56.123Z,25.38
2018-03-16T04:43:56.115Z,25.41
2018-03-16T04:44:56.111Z,25.36
2018-03-16T04:45:56.107Z,25.36
2018-03-16T04:46:56.204Z,25.42
2018-03-16T04:47:56.100Z,25.29
2018-03-16T04:48:56.096Z,25.27
2018-03-16T04:49:56.097Z,25.26
2018-03-16T04:50:56.093Z,25.27
2018-03-16T04:51:56.089Z,25.23
2018-03-16T04:52:56.085Z,25.23
2018-03-16T04:53:56.081Z,25.22
2018-03-16T04:54:56.074Z,25.11
2018-03-16T04:55:56.070Z,25.12
2018-03-16T04:56:56.070Z,25.11
2018-03-16T04:57:56.066Z,25.08
2018-03-16T04:58:56.063Z,25.14
2018-03-16T04:59:56.059Z,25.09
2018-03-16T05:00:56.050Z,25.11
2018-03-16T05:01:56.051Z,25.12
2018-03-16T05:02:56.049Z,25.17
2018-03-16T05:03:56.044Z,25.11
2018-03-16T05:04:56.135Z,25.11
2018-03-16T05:05:56.031Z,25.08
2018-03-16T05:06:56.031Z,25.11
2018-03-16T05:07:56.024Z,25.12
2018-03-16T05:08:56.023Z,25.14
2018-03-16T05:09:56.015Z,25.16
2018-03-16T05:10:56.022Z,25.04
2018-03-16T05:11:56.009Z,25.11
2018-03-16T05:12:56.008Z,25.09
2018-03-16T05:13:56.000Z,25.12
2018-03-16T05:14:56.000Z,25.12
2018-03-16T05:15:55.992Z,25.08
2018-03-16T05:16:56.088Z,25.08
2018-03-16T05:17:55.988Z,24.97
2018-03-16T05:18:55.985Z,24.99
2018-03-16T05:19:55.977Z,25.04
2018-03-16T05:20:55.978Z,25.05
2018-03-16T05:21:55.968Z,25.14
2018-03-16T05:22:56.070Z,25.11
2018-03-16T05:23:55.965Z,25.05
2018-03-16T05:24:55.956Z,25.01
2018-03-16T05:25:55.953Z,25.01
2018-03-16T05:26:55.949Z,24.98
2018-03-16T05:27:55.946Z,24.94
2018-03-16T05:28:55.945Z,24.93
2018-03-16T05:29:55.938Z,24.94
2018-03-16T05:30:55.933Z,24.93
2018-03-16T05:31:55.929Z,24.86
2018-03-16T05:32:55.924Z,24.93
2018-03-16T05:33:55.921Z,24.90
2018-03-16T05:34:56.019Z,24.93
2018-03-16T05:35:55.915Z,24.90
2018-03-16T05:36:55.909Z,24.89
2018-03-16T05:37:55.907Z,24.90
2018-03-16T05:38:55.905Z,24.89
2018-03-16T05:39:55.906Z,24.89
2018-03-16T05:40:55.995Z,24.93
2018-03-16T05:41:55.891Z,24.86
2018-03-16T05:42:55.883Z,24.90
2018-03-16T05:43:55.879Z,24.80
2018-03-16T05:44:55.876Z,24.75
2018-03-16T05:45:55.878Z,24.83
2018-03-16T05:46:55.970Z,24.77
2018-03-16T05:47:55.864Z,24.77
2018-03-16T05:48:55.862Z,24.79
2018-03-16T05:49:55.861Z,24.74
2018-03-16T05:50:55.850Z,24.84
2018-03-16T05:51:55.849Z,24.71
2018-03-16T05:52:55.844Z,24.82
2018-03-16T05:53:55.842Z,24.71
2018-03-16T05:54:55.876Z,24.79
2018-03-16T05:55:55.832Z,24.74
2018-03-16T05:56:55.827Z,24.68
2018-03-16T05:57:55.827Z,24.75
2018-03-16T05:58:55.923Z,24.75
2018-03-16T05:59:55.815Z,24.74
2018-03-16T06:00:55.822Z,24.70
2018-03-16T06:01:55.808Z,24.68
2018-03-16T06:02:55.802Z,24.74
2018-03-16T06:03:55.803Z,24.67
2018-03-16T06:04:55.900Z,24.80
2018-03-16T06:05:55.792Z,24.75
2018-03-16T06:06:55.789Z,24.77
2018-03-16T06:07:55.780Z,24.70
2018-03-16T06:08:55.781Z,24.70
2018-03-16T06:09:55.768Z,24.66
2018-03-16T06:10:55.764Z,24.68
2018-03-16T06:11:55.769Z,24.66
2018-03-16T06:12:55.764Z,24.61
2018-03-16T06:13:55.760Z,24.67
2018-03-16T06:14:55.756Z,24.63
2018-03-16T06:15:55.751Z,24.55
2018-03-16T06:16:55.748Z,24.64
2018-03-16T06:17:55.739Z,24.63
2018-03-16T06:18:55.736Z,24.66
2018-03-16T06:19:55.735Z,24.61
2018-03-16T06:20:55.720Z,24.51
2018-03-16T06:21:55.732Z,24.59
2018-03-16T06:22:55.717Z,24.60
2018-03-16T06:23:55.717Z,24.56
2018-03-16T06:24:55.713Z,24.64
2018-03-16T06:25:55.709Z,24.67
2018-03-16T06:26:55.720Z,24.52
2018-03-16T06:27:55.700Z,24.63
2018-03-16T06:28:55.799Z,24.71
2018-03-16T06:29:55.691Z,24.63
2018-03-16T06:30:55.678Z,24.60
2018-03-16T06:31:55.684Z,24.63
2018-03-16T06:32:55.674Z,24.63
2018-03-16T06:33:55.683Z,24.66
2018-03-16T06:34:55.643Z,24.61
2018-03-16T06:35:55.649Z,24.60
2018-03-16T06:36:55.643Z,24.61
2018-03-16T06:37:55.653Z,24.63
2018-03-16T06:38:55.651Z,24.61
2018-03-16T06:39:55.631Z,24.66
2018-03-16T06:40:55.738Z,24.63
2018-03-16T06:41:55.619Z,24.64
2018-03-16T06:42:55.615Z,24.66
2018-03-16T06:43:55.612Z,24.61
2018-03-16T06:44:55.714Z,24.63
2018-03-16T06:45:55.618Z,24.66
2018-03-16T06:46:55.713Z,24.61
2018-03-16T06:47:55.613Z,24.64
2018-03-16T06:48:55.589Z,24.67
2018-03-16T06:49:55.604Z,24.61
2018-03-16T06:50:55.597Z,24.67
2018-03-16T06:51:55.628Z,24.52
2018-03-16T06:52:55.588Z,24.68
2018-03-16T06:53:55.583Z,24.59
2018-03-16T06:54:55.569Z,24.60
2018-03-16T06:55:55.577Z,24.51
2018-03-16T06:56:55.555Z,24.51
2018-03-16T06:57:55.568Z,24.45
2018-03-16T06:58:55.564Z,24.56
2018-03-16T06:59:55.566Z,24.41
2018-03-16T07:00:55.555Z,24.44
2018-03-16T07:01:55.556Z,24.46
2018-03-16T07:02:55.546Z,24.44
2018-03-16T07:03:55.547Z,24.45
2018-03-16T07:04:55.623Z,24.46
2018-03-16T07:05:55.519Z,24.48
2018-03-16T07:06:55.535Z,24.39
2018-03-16T07:07:55.528Z,24.34
2018-03-16T07:08:55.522Z,24.37
2018-03-16T07:09:55.518Z,24.37
2018-03-16T07:10:55.615Z,24.41
2018-03-16T07:11:55.511Z,24.37
2018-03-16T07:12:55.488Z,24.42
2018-03-16T07:13:55.502Z,24.33
2018-03-16T07:14:55.481Z,24.26
2018-03-16T07:15:55.475Z,24.30
2018-03-16T07:16:55.471Z,24.42
2018-03-16T07:17:55.469Z,24.27
2018-03-16T07:18:55.480Z,24.34
2018-03-16T07:19:55.476Z,24.29
2018-03-16T07:20:55.475Z,24.33
2018-03-16T07:21:55.475Z,24.33
2018-03-16T07:22:55.549Z,24.33
2018-03-16T07:23:55.459Z,24.29
2018-03-16T07:24:55.436Z,24.30
2018-03-16T07:25:55.456Z,24.34
2018-03-16T07:26:55.445Z,24.24
2018-03-16T07:27:55.428Z,24.19
2018-03-16T07:28:55.422Z,24.18
2018-03-16T07:29:55.414Z,24.23
2018-03-16T07:30:55.429Z,24.15
2018-03-16T07:31:55.428Z,24.15
2018-03-16T07:32:55.402Z,24.09
2018-03-16T07:33:55.400Z,24.09
2018-03-16T07:34:55.414Z,24.09
2018-03-16T07:35:55.388Z,24.19
2018-03-16T07:36:55.386Z,24.09
2018-03-16T07:37:55.401Z,24.11
2018-03-16T07:38:55.392Z,24.18
2018-03-16T07:39:55.392Z,24.11
2018-03-16T07:40:55.470Z,24.08
2018-03-16T07:41:55.364Z,24.02
2018-03-16T07:42:55.360Z,23.99
2018-03-16T07:43:55.375Z,23.92
2018-03-16T07:44:55.365Z,23.96
2018-03-16T07:45:55.343Z,23.92
2018-03-16T07:46:55.362Z,23.86
2018-03-16T07:47:55.356Z,23.89
2018-03-16T07:48:55.332Z,23.87
2018-03-16T07:49:55.346Z,23.90
2018-03-16T07:50:55.324Z,23.92
2018-03-16T07:51:55.337Z,23.89
2018-03-16T07:52:55.432Z,23.87
2018-03-16T07:53:55.309Z,23.86
2018-03-16T07:54:55.323Z,23.72
2018-03-16T07:55:55.301Z,23.87
2018-03-16T07:56:55.313Z,23.86
2018-03-16T07:57:55.311Z,23.90
2018-03-16T07:58:55.399Z,23.89
2018-03-16T07:59:55.285Z,23.87
2018-03-16T08:00:55.294Z,23.86
2018-03-16T08:01:55.272Z,23.87
2018-03-16T08:02:55.267Z,23.90
2018-03-16T08:03:55.276Z,23.96
2018-03-16T08:04:55.375Z,23.93
2018-03-16T08:05:55.271Z,23.94
2018-03-16T08:06:55.262Z,23.97
2018-03-16T08:07:55.244Z,23.92
2018-03-16T08:08:55.237Z,23.96
2018-03-16T08:09:55.234Z,23.94
2018-03-16T08:10:55.325Z,23.92
2018-03-16T08:11:55.241Z,23.90
2018-03-16T08:12:55.241Z,23.93
2018-03-16T08:13:55.211Z,23.93
2018-03-16T08:14:55.224Z,23.99
2018-03-16T08:15:55.202Z,23.93
2018-03-16T08:16:55.197Z,23.89
2018-03-16T08:17:55.193Z,23.93
2018-03-16T08:18:55.194Z,23.96
2018-03-16T08:19:55.199Z,23.93
2018-03-16T08:20:55.182Z,24.04
2018-03-16T08:21:55.177Z,23.94
2018-03-16T08:22:55.289Z,24.04
2018-03-16T08:23:55.168Z,24.05
2018-03-16T08:24:55.180Z,23.96
2018-03-16T08:25:55.176Z,23.99
2018-03-16T08:26:55.156Z,23.94
2018-03-16T08:27:55.156Z,23.97
2018-03-16T08:28:55.147Z,23.90
2018-03-16T08:29:55.146Z,23.93
2018-03-16T08:30:55.149Z,23.96
2018-03-16T08:31:55.133Z,23.90
2018-03-16T08:32:55.129Z,23.96
2018-03-16T08:33:55.125Z,23.94
2018-03-16T08:34:55.216Z,23.89
2018-03-16T08:35:55.131Z,23.89
2018-03-16T08:36:55.106Z,23.99
2018-03-16T08:37:55.107Z,23.94
2018-03-16T08:38:55.113Z,23.90
2018-03-16T08:39:55.113Z,23.93
2018-03-16T08:40:55.192Z,23.94
2018-03-16T08:41:55.104Z,23.92
2018-03-16T08:42:55.095Z,23.94
2018-03-16T08:43:55.091Z,23.94
2018-03-16T08:44:55.090Z,23.92
2018-03-16T08:45:55.088Z,23.89
2018-03-16T08:46:55.065Z,23.89
2018-03-16T08:47:55.062Z,23.89
2018-03-16T08:48:55.074Z,23.82
2018-03-16T08:49:55.051Z,23.96
2018-03-16T08:50:55.059Z,24.00
2018-03-16T08:51:55.059Z,23.97
2018-03-16T08:52:55.139Z,23.99
2018-03-16T08:53:55.049Z,23.97
2018-03-16T08:54:55.025Z,23.89
2018-03-16T08:55:55.037Z,23.99
2018-03-16T08:56:55.036Z,23.90
2018-03-16T08:57:55.016Z,24.02
2018-03-16T08:58:55.018Z,24.05
2018-03-16T08:59:55.003Z,23.99
2018-03-16T09:00:55.004Z,23.89
2018-03-16T09:01:55.013Z,23.86
2018-03-16T09:02:55.055Z,23.81
2018-03-16T09:03:54.990Z,23.82
2018-03-16T09:04:55.085Z,23.86
2018-03-16T09:05:54.984Z,23.82
2018-03-16T09:06:54.991Z,23.74
2018-03-16T09:07:54.986Z,23.86
2018-03-16T09:08:54.967Z,23.84
2018-03-16T09:09:54.979Z,23.87
2018-03-16T09:10:54.953Z,23.81
2018-03-16T09:11:54.968Z,23.81
2018-03-16T09:12:54.947Z,23.77
2018-03-16T09:13:54.944Z,23.82
2018-03-16T09:14:54.938Z,23.81
2018-03-16T09:15:54.936Z,23.90
2018-03-16T09:16:54.941Z,23.86
2018-03-16T09:17:54.926Z,23.90
2018-03-16T09:18:54.921Z,23.86
2018-03-16T09:19:54.916Z,23.86
2018-03-16T09:20:54.927Z,23.89
2018-03-16T09:21:54.922Z,23.87
2018-03-16T09:22:55.019Z,23.87
2018-03-16T09:23:54.900Z,23.86
2018-03-16T09:24:54.905Z,23.87
2018-03-16T09:25:54.890Z,23.86
2018-03-16T09:26:54.884Z,23.93
2018-03-16T09:27:54.881Z,23.92
2018-03-16T09:28:54.990Z,23.84
2018-03-16T09:29:54.886Z,23.84
2018-03-16T09:30:54.878Z,23.84
2018-03-16T09:31:54.855Z,23.86
2018-03-16T09:32:54.873Z,23.89
2018-03-16T09:33:54.849Z,23.90
2018-03-16T09:34:54.886Z,23.89
2018-03-16T09:35:54.860Z,23.86
2018-03-16T09:36:54.837Z,23.92
2018-03-16T09:37:54.850Z,23.93
2018-03-16T09:38:54.846Z,23.90
2018-03-16T09:39:54.832Z,23.93
2018-03-16T09:40:54.832Z,23.97
2018-03-16T09:41:54.815Z,23.96
2018-03-16T09:42:54.811Z,24.05
2018-03-16T09:43:54.804Z,24.00
2018-03-16T09:44:54.808Z,24.12
2018-03-16T09:45:54.797Z,24.09
2018-03-16T09:46:54.890Z,24.06
2018-03-16T09:47:54.796Z,24.14
2018-03-16T09:48:54.781Z,24.12
2018-03-16T09:49:54.779Z,24.15
2018-03-16T09:50:54.775Z,24.16
2018-03-16T09:51:54.832Z,24.24
2018-03-16T09:52:54.763Z,24.29
2018-03-16T09:53:54.754Z,24.15
2018-03-16T09:54:54.776Z,24.18
2018-03-16T09:55:54.745Z,24.15
2018-03-16T09:56:54.755Z,24.27
2018-03-16T09:57:54.745Z,24.23
2018-03-16T09:58:54.730Z,24.18
2018-03-16T09:59:54.752Z,24.23
2018-03-16T10:00:54.747Z,24.21
2018-03-16T10:01:54.742Z,24.19
2018-03-16T10:02:54.738Z,24.19
2018-03-16T10:03:54.734Z,24.27
2018-03-16T10:04:54.810Z,24.23
2018-03-16T10:05:54.706Z,24.24
2018-03-16T10:06:54.712Z,24.23
2018-03-16T10:07:54.717Z,24.24
2018-03-16T10:08:54.698Z,24.23
2018-03-16T10:09:54.688Z,24.26
2018-03-16T10:10:54.678Z,24.31
2018-03-16T10:11:54.691Z,24.29
2018-03-16T10:12:54.692Z,24.30
2018-03-16T10:13:54.690Z,24.34
2018-03-16T10:14:54.667Z,24.36
2018-03-16T10:15:54.673Z,24.33
2018-03-16T10:16:54.758Z,24.33
2018-03-16T10:17:54.656Z,24.23
2018-03-16T10:18:54.654Z,24.33
2018-03-16T10:19:54.645Z,24.39
2018-03-16T10:20:54.660Z,24.34
2018-03-16T10:21:54.648Z,24.44
2018-03-16T10:22:54.652Z,24.34
2018-03-16T10:23:54.640Z,24.44
2018-03-16T10:24:54.628Z,24.46
2018-03-16T10:25:54.620Z,24.41
2018-03-16T10:26:54.635Z,24.51
2018-03-16T10:27:54.616Z,24.46
2018-03-16T10:28:54.629Z,24.55
2018-03-16T10:29:54.621Z,24.46
2018-03-16T10:30:54.616Z,24.48
2018-03-16T10:31:54.595Z,24.52
2018-03-16T10:32:54.590Z,24.53
2018-03-16T10:33:54.603Z,24.55
2018-03-16T10:34:54.585Z,24.51
2018-03-16T10:35:54.595Z,24.52
2018-03-16T10:36:54.590Z,24.53
2018-03-16T10:37:54.597Z,24.63
2018-03-16T10:38:54.576Z,24.56
2018-03-16T10:39:54.566Z,24.61
2018-03-16T10:40:54.578Z,24.67
2018-03-16T10:41:54.557Z,24.63
2018-03-16T10:42:54.571Z,24.64
2018-03-16T10:43:54.567Z,24.61
2018-03-16T10:44:54.545Z,24.67
2018-03-16T10:45:54.557Z,24.61
2018-03-16T10:46:54.554Z,24.64
2018-03-16T10:47:54.533Z,24.66
2018-03-16T10:48:54.578Z,24.71
2018-03-16T10:49:54.523Z,24.66
2018-03-16T10:50:54.538Z,24.68
2018-03-16T10:51:54.516Z,24.79
2018-03-16T10:52:54.632Z,24.70
2018-03-16T10:53:54.525Z,24.75
2018-03-16T10:54:54.521Z,24.75
2018-03-16T10:55:54.495Z,24.87
2018-03-16T10:56:54.517Z,24.79
2018-03-16T10:57:54.487Z,24.82
2018-03-16T10:58:54.601Z,24.90
2018-03-16T10:59:54.480Z,24.86
2018-03-16T11:00:54.497Z,24.92
2018-03-16T11:01:54.476Z,24.87
2018-03-16T11:02:54.467Z,24.87
2018-03-16T11:03:54.485Z,24.94
2018-03-16T11:04:54.477Z,25.01
2018-03-16T11:05:54.455Z,24.97
2018-03-16T11:06:54.452Z,24.94
2018-03-16T11:07:54.465Z,24.97
2018-03-16T11:08:54.460Z,24.92
2018-03-16T11:09:54.439Z,24.99
2018-03-16T11:10:54.456Z,24.98
2018-03-16T11:11:54.456Z,24.99
2018-03-16T11:12:54.445Z,25.01
2018-03-16T11:13:54.424Z,24.99
2018-03-16T11:14:54.437Z,24.98
2018-03-16T11:15:54.419Z,24.98
2018-03-16T11:16:54.436Z,25.08
2018-03-16T11:17:54.428Z,25.07
2018-03-16T11:18:54.404Z,25.16
2018-03-16T11:19:54.402Z,25.09
2018-03-16T11:20:54.396Z,25.14
2018-03-16T11:21:54.393Z,25.16
2018-03-16T11:22:54.492Z,25.09
2018-03-16T11:23:54.386Z,25.14
2018-03-16T11:24:54.381Z,25.11
2018-03-16T11:25:54.377Z,25.16
2018-03-16T11:26:54.393Z,25.16
2018-03-16T11:27:54.375Z,25.24
2018-03-16T11:28:54.383Z,25.26
2018-03-16T11:29:54.362Z,25.27
2018-03-16T11:30:54.378Z,25.26
2018-03-16T11:31:54.360Z,25.30
2018-03-16T11:32:54.351Z,25.34
2018-03-16T11:33:54.364Z,25.22
2018-03-16T11:34:54.444Z,25.26
2018-03-16T11:35:54.358Z,25.36
2018-03-16T11:36:54.353Z,25.39
2018-03-16T11:37:54.332Z,25.35
2018-03-16T11:38:54.331Z,25.41
2018-03-16T11:39:54.326Z,25.34
2018-03-16T11:40:54.321Z,25.42
2018-03-16T11:41:54.318Z,25.45
2018-03-16T11:42:54.331Z,25.42
2018-03-16T11:43:54.333Z,25.42
2018-03-16T11:44:54.324Z,25.41
2018-03-16T11:45:54.325Z,25.44
2018-03-16T11:46:54.472Z,25.35
2018-03-16T11:47:54.314Z,25.45
2018-03-16T11:48:54.309Z,25.44
2018-03-16T11:49:54.288Z,25.45
2018-03-16T11:50:54.307Z,25.51
2018-03-16T11:51:54.399Z,25.48
2018-03-16T11:52:54.277Z,25.51
2018-03-16T11:53:54.296Z,25.57
2018-03-16T11:54:54.271Z,25.64
2018-03-16T11:55:54.268Z,25.64
2018-03-16T11:56:54.285Z,25.57
2018-03-16T11:57:54.378Z,25.60
2018-03-16T11:58:54.257Z,25.49
2018-03-16T11:59:54.253Z,25.66
2018-03-16T12:00:54.271Z,25.61
2018-03-16T12:01:54.263Z,25.69
2018-03-16T12:02:54.264Z,25.69
2018-03-16T12:03:54.264Z,25.67
2018-03-16T12:04:54.256Z,25.66
2018-03-16T12:05:54.260Z,25.82
2018-03-16T12:06:54.246Z,25.75
2018-03-16T12:07:54.243Z,25.81
2018-03-16T12:08:54.243Z,25.81
2018-03-16T12:09:54.253Z,25.76
2018-03-16T12:10:54.236Z,25.89
2018-03-16T12:11:54.236Z,25.85
2018-03-16T12:12:54.224Z,25.96
2018-03-16T12:13:54.230Z,26.03
2018-03-16T12:14:54.217Z,26.04
2018-03-16T12:15:54.219Z,26.08
2018-03-16T12:16:54.210Z,26.11
2018-03-16T12:17:54.209Z,26.13
2018-03-16T12:18:54.204Z,26.06
2018-03-16T12:19:54.213Z,26.23
2018-03-16T12:20:54.197Z,26.39
2018-03-16T12:21:54.202Z,26.38
2018-03-16T12:22:54.191Z,26.56
2018-03-16T12:23:54.204Z,26.59
2018-03-16T12:24:54.188Z,26.75
2018-03-16T12:25:54.211Z,26.75
2018-03-16T12:26:54.182Z,27.13
2018-03-16T12:27:54.179Z,27.28
2018-03-16T12:28:54.172Z,27.30
2018-03-16T12:29:54.173Z,27.52
2018-03-16T12:30:54.224Z,27.52
2018-03-16T12:31:54.173Z,27.77
2018-03-16T12:32:54.166Z,27.93
2018-03-16T12:33:54.165Z,28.14
2018-03-16T12:34:54.158Z,28.64
2018-03-16T12:35:54.159Z,28.58
2018-03-16T12:36:54.161Z,28.85
2018-03-16T12:37:54.159Z,28.70
2018-03-16T12:38:54.150Z,28.79
2018-03-16T12:39:54.157Z,28.83
2018-03-16T12:40:54.145Z,28.94
2018-03-16T12:41:54.144Z,29.30
2018-03-16T12:42:54.144Z,29.25
2018-03-16T12:43:54.146Z,29.42
2018-03-16T12:44:54.143Z,29.54
2018-03-16T12:45:54.146Z,29.57
2018-03-16T12:46:54.141Z,29.63
2018-03-16T12:47:54.179Z,29.73
2018-03-16T12:48:54.136Z,29.69
2018-03-16T12:49:54.148Z,29.76
2018-03-16T12:50:54.133Z,29.78
2018-03-16T12:51:54.155Z,29.66
2018-03-16T12:52:54.131Z,29.63